Abernathy, Texas
Current Conditions -  °F | °C
As of 11:53 PM on Sunday 23 Nov 2014 (Local Time) from KLBB Reporting Station
Clear Clear  
Wind Chill: 27°   Ceiling: Unl
Heat Index: 35°   Visibility: 10mi
Dew Point: 28°   Wind: 10mph
Humidity: 76%   Direction: 310°NW
Pressure: 29.95"   Gusts: NA
Location:  33.83°N, 101.84°W
Report Text: KLBB 240553Z 31009KT 10SM CLR 02/M02 A2995 RMK AO2 SLP122 T00171022 10056 20017 401940017 51015
Loading
Personal Weather Stations






























Interactive Weather Map New forecast layout! Learn more

10-Day Weather Forecast

Advertisements
Track Severe Weather on mobile